createdAt,value
2023-02-28T00:01:15.422Z,12.85
2023-02-28T00:03:42.899Z,11.40
2023-02-28T00:06:10.771Z,11.00
2023-02-28T00:08:39.023Z,10.73
2023-02-28T00:11:14.586Z,11.85
2023-02-28T00:13:47.390Z,12.27
2023-02-28T00:16:18.146Z,12.52
2023-02-28T00:18:45.705Z,12.13
2023-02-28T00:21:12.821Z,12.38
2023-02-28T00:23:39.933Z,12.25
2023-02-28T00:26:07.118Z,12.95
2023-02-28T00:28:34.211Z,12.50
2023-02-28T00:31:01.388Z,12.73
2023-02-28T00:33:30.177Z,14.02
2023-02-28T00:36:09.776Z,14.68
2023-02-28T00:38:38.201Z,14.05
2023-02-28T00:41:06.034Z,13.25
2023-02-28T00:43:38.650Z,12.07
2023-02-28T00:46:06.361Z,12.50
2023-02-28T00:48:33.866Z,12.77
2023-02-28T00:51:01.378Z,12.52
2023-02-28T00:53:28.869Z,12.52
2023-02-28T00:55:58.481Z,13.73
2023-02-28T00:58:27.236Z,13.95
2023-02-28T01:00:55.001Z,12.98
2023-02-28T01:03:23.793Z,14.75
2023-02-28T01:05:51.397Z,14.20
2023-02-28T01:08:18.738Z,14.27
2023-02-28T01:10:45.788Z,13.68
2023-02-28T01:13:13.509Z,14.70
2023-02-28T01:15:44.858Z,13.30
2023-02-28T01:18:12.829Z,13.45
2023-02-28T01:20:40.296Z,13.30
2023-02-28T01:23:07.527Z,13.13
2023-02-28T01:25:38.680Z,12.57
2023-02-28T01:28:06.979Z,13.32
2023-02-28T01:30:35.109Z,12.80
2023-02-28T01:33:02.517Z,14.18
2023-02-28T01:35:29.704Z,14.02
2023-02-28T01:38:00.980Z,12.90
2023-02-28T01:40:31.940Z,12.98
2023-02-28T01:42:59.336Z,12.57
2023-02-28T01:45:35.629Z,12.77
2023-02-28T01:48:07.097Z,14.25
2023-02-28T01:50:40.061Z,12.32
2023-02-28T01:53:11.853Z,12.85
2023-02-28T01:55:40.971Z,13.35
2023-02-28T01:58:10.326Z,13.15
2023-02-28T02:00:37.653Z,12.40
2023-02-28T02:03:12.069Z,13.90
2023-02-28T02:05:41.666Z,15.40
2023-02-28T02:08:15.734Z,13.73
2023-02-28T02:11:04.287Z,12.85
2023-02-28T02:13:34.235Z,13.85
2023-02-28T02:16:49.017Z,13.88
2023-02-28T02:19:37.448Z,13.80
2023-02-28T02:22:46.472Z,14.70
2023-02-28T02:25:33.646Z,12.80
2023-02-28T02:28:28.733Z,13.30
2023-02-28T02:31:18.835Z,12.75
2023-02-28T02:34:04.762Z,12.68
2023-02-28T02:36:43.705Z,13.25
2023-02-28T02:39:15.713Z,12.77
2023-02-28T02:41:52.352Z,12.80
2023-02-28T02:44:46.834Z,13.75
2023-02-28T02:47:20.259Z,13.25
2023-02-28T02:50:00.634Z,12.48
2023-02-28T02:52:54.888Z,12.60
2023-02-28T02:55:24.419Z,12.50
2023-02-28T02:58:03.591Z,13.30
2023-02-28T03:00:38.906Z,12.30
2023-02-28T03:03:09.057Z,12.98
2023-02-28T03:05:49.128Z,13.82
2023-02-28T03:08:17.439Z,13.48
2023-02-28T03:10:49.670Z,13.65
2023-02-28T03:13:45.782Z,15.13
2023-02-28T03:16:31.059Z,15.60
2023-02-28T03:19:16.490Z,15.25
2023-02-28T03:21:46.790Z,14.57
2023-02-28T03:24:35.708Z,14.50
2023-02-28T03:27:13.204Z,14.52
2023-02-28T03:29:58.256Z,15.13
2023-02-28T03:32:34.600Z,14.00
2023-02-28T03:35:09.569Z,13.93
2023-02-28T03:37:39.993Z,14.57
2023-02-28T03:40:15.424Z,14.55
2023-02-28T03:42:45.737Z,13.25
2023-02-28T03:45:18.023Z,14.68
2023-02-28T03:47:54.713Z,14.70
2023-02-28T03:50:26.119Z,14.10
2023-02-28T03:53:07.981Z,14.15
2023-02-28T03:55:42.750Z,22.55
2023-02-28T03:58:19.938Z,15.05
2023-02-28T04:00:57.100Z,15.00
2023-02-28T04:03:24.819Z,15.18
2023-02-28T04:05:56.817Z,14.30
2023-02-28T04:08:24.057Z,14.02
2023-02-28T04:10:59.013Z,13.98
2023-02-28T04:13:26.117Z,14.20
2023-02-28T04:15:53.377Z,13.80
2023-02-28T04:18:20.507Z,15.05
2023-02-28T04:20:47.539Z,14.93
2023-02-28T04:23:14.724Z,15.20
2023-02-28T04:25:42.069Z,15.32
2023-02-28T04:28:09.190Z,15.38
2023-02-28T04:30:36.354Z,15.73
2023-02-28T04:33:03.575Z,15.60
2023-02-28T04:35:30.641Z,15.30
2023-02-28T04:37:58.059Z,14.68
2023-02-28T04:40:25.254Z,15.85
2023-02-28T04:42:52.306Z,15.15
2023-02-28T04:45:19.417Z,13.90
2023-02-28T04:47:46.593Z,15.68
2023-02-28T04:50:13.666Z,16.80
2023-02-28T04:52:40.811Z,16.17
2023-02-28T04:55:08.508Z,13.50
2023-02-28T04:57:35.575Z,14.90
2023-02-28T05:00:02.726Z,14.43
2023-02-28T05:02:29.861Z,16.25
2023-02-28T05:04:57.033Z,15.88
2023-02-28T05:07:24.212Z,15.82
2023-02-28T05:09:51.277Z,15.18
2023-02-28T05:12:18.388Z,15.18
2023-02-28T05:14:45.396Z,15.82
2023-02-28T05:17:12.486Z,16.40
2023-02-28T05:19:39.569Z,15.70
2023-02-28T05:22:14.458Z,15.73
2023-02-28T05:24:41.569Z,16.42
2023-02-28T05:27:09.287Z,15.80
2023-02-28T05:29:42.715Z,16.75
2023-02-28T05:32:12.404Z,17.48
2023-02-28T05:34:40.728Z,18.48
2023-02-28T05:37:13.537Z,17.17
2023-02-28T05:39:40.967Z,17.67
2023-02-28T05:42:08.335Z,17.88
2023-02-28T05:44:35.481Z,17.90
2023-02-28T05:47:02.608Z,18.85
2023-02-28T05:49:30.135Z,18.88
2023-02-28T05:51:57.329Z,18.55
2023-02-28T05:54:24.452Z,17.48
2023-02-28T05:56:51.520Z,18.63
2023-02-28T05:59:18.606Z,20.10
2023-02-28T06:02:17.440Z,18.35
2023-02-28T06:04:44.698Z,18.27
2023-02-28T06:07:11.856Z,18.55
2023-02-28T06:09:39.053Z,19.00
2023-02-28T06:12:08.386Z,18.52
2023-02-28T06:14:35.638Z,21.00
2023-02-28T06:17:04.038Z,20.92
2023-02-28T06:19:31.741Z,20.65
2023-02-28T06:21:59.631Z,21.55
2023-02-28T06:24:31.587Z,23.23
2023-02-28T06:27:00.147Z,20.10
2023-02-28T06:29:27.396Z,21.20
2023-02-28T06:31:54.548Z,21.73
2023-02-28T06:34:21.760Z,21.58
2023-02-28T06:36:52.926Z,21.75
2023-02-28T06:39:20.546Z,22.23
2023-02-28T06:41:55.313Z,20.70
2023-02-28T06:44:24.291Z,21.15
2023-02-28T06:46:51.591Z,21.95
2023-02-28T06:49:18.964Z,21.95
2023-02-28T06:51:46.363Z,21.45
2023-02-28T06:54:14.179Z,21.98
2023-02-28T06:56:41.464Z,22.30
2023-02-28T06:59:08.649Z,21.33
2023-02-28T07:01:35.945Z,20.25
2023-02-28T07:04:04.151Z,27.08
2023-02-28T07:06:31.656Z,32.65
2023-02-28T07:08:58.735Z,27.52
2023-02-28T07:11:28.954Z,28.50
2023-02-28T07:13:57.572Z,25.88
2023-02-28T07:16:26.227Z,24.88
2023-02-28T07:18:56.703Z,23.38
2023-02-28T07:21:23.883Z,24.95
2023-02-28T07:23:51.094Z,23.02
2023-02-28T07:26:20.221Z,24.80
2023-02-28T07:28:49.028Z,23.70
2023-02-28T07:31:16.893Z,21.17
2023-02-28T07:33:44.530Z,21.13
2023-02-28T07:36:16.487Z,19.92
2023-02-28T07:38:48.104Z,21.20
2023-02-28T07:41:17.736Z,20.85
2023-02-28T07:43:45.769Z,20.65
2023-02-28T07:46:18.344Z,20.75
2023-02-28T07:48:46.300Z,20.83
2023-02-28T07:51:13.889Z,19.63
2023-02-28T07:53:41.116Z,20.05
2023-02-28T07:56:08.582Z,19.75
2023-02-28T07:58:35.827Z,19.75
2023-02-28T08:01:10.876Z,19.20
2023-02-28T08:03:39.321Z,19.85
2023-02-28T08:06:08.357Z,19.52
2023-02-28T08:08:35.578Z,19.63
2023-02-28T08:11:04.513Z,19.63
2023-02-28T08:13:32.207Z,19.50
2023-02-28T08:15:59.752Z,20.38
2023-02-28T08:18:26.903Z,21.83
2023-02-28T08:20:54.017Z,20.75
2023-02-28T08:23:21.198Z,24.23
2023-02-28T08:25:55.956Z,21.98
2023-02-28T08:28:26.034Z,18.83
2023-02-28T08:30:54.960Z,17.98
2023-02-28T08:33:22.599Z,17.17
2023-02-28T08:35:50.142Z,17.05
2023-02-28T08:38:17.295Z,18.50
2023-02-28T08:40:44.396Z,17.30
2023-02-28T08:43:11.664Z,16.27
2023-02-28T08:45:39.070Z,15.77
2023-02-28T08:48:06.328Z,16.40
2023-02-28T08:50:33.682Z,16.67
2023-02-28T08:53:01.227Z,14.95
2023-02-28T08:55:28.334Z,15.55
2023-02-28T08:57:56.183Z,14.75
2023-02-28T09:00:23.800Z,14.40
2023-02-28T09:02:50.962Z,15.07
2023-02-28T09:05:18.043Z,16.10
2023-02-28T09:07:45.175Z,15.52
2023-02-28T09:10:12.380Z,16.38
2023-02-28T09:12:39.582Z,15.88
2023-02-28T09:15:07.502Z,14.52
2023-02-28T09:17:34.670Z,14.32
2023-02-28T09:20:01.758Z,14.50
2023-02-28T09:22:29.008Z,15.02
2023-02-28T09:24:56.301Z,12.82
2023-02-28T09:27:23.459Z,14.80
2023-02-28T09:29:50.733Z,13.32
2023-02-28T09:32:19.301Z,13.43
2023-02-28T09:34:46.406Z,12.30
2023-02-28T09:37:13.562Z,11.20
2023-02-28T09:39:40.734Z,12.18
2023-02-28T09:42:20.135Z,10.73
2023-02-28T09:44:49.116Z,11.13
2023-02-28T09:47:27.612Z,11.07
2023-02-28T09:49:57.742Z,10.73
2023-02-28T09:52:34.052Z,10.30
2023-02-28T09:55:23.564Z,8.10
2023-02-28T09:57:53.255Z,8.30
2023-02-28T10:00:31.338Z,8.80
2023-02-28T10:03:36.454Z,8.82
2023-02-28T10:06:18.404Z,7.70
2023-02-28T10:09:10.455Z,7.85
2023-02-28T10:11:40.869Z,7.85
2023-02-28T10:14:26.321Z,5.15
2023-02-28T10:17:09.930Z,7.30
2023-02-28T10:19:45.975Z,7.97
2023-02-28T10:22:13.091Z,8.48
2023-02-28T10:24:55.170Z,8.55
2023-02-28T10:27:29.315Z,8.10
2023-02-28T10:30:00.506Z,8.05
2023-02-28T10:32:34.863Z,8.90
2023-02-28T10:35:17.895Z,8.77
2023-02-28T10:37:48.361Z,7.82
2023-02-28T10:40:21.727Z,7.78
2023-02-28T10:43:14.636Z,8.23
2023-02-28T10:45:55.454Z,9.07
2023-02-28T10:48:22.472Z,8.95
2023-02-28T10:50:51.012Z,8.68
2023-02-28T10:53:27.192Z,7.70
2023-02-28T10:56:14.309Z,8.50
2023-02-28T10:59:00.068Z,7.88
2023-02-28T11:01:33.755Z,7.70
2023-02-28T11:04:01.312Z,7.55
2023-02-28T11:06:33.392Z,7.97
2023-02-28T11:09:07.268Z,8.40
2023-02-28T11:11:44.963Z,7.65
2023-02-28T11:14:25.499Z,6.97
2023-02-28T11:16:53.785Z,6.75
2023-02-28T11:19:27.301Z,8.15
2023-02-28T11:22:01.571Z,8.55
2023-02-28T11:24:32.858Z,8.35
2023-02-28T11:27:00.007Z,8.63
2023-02-28T11:29:30.569Z,8.77
2023-02-28T11:32:14.808Z,8.27
2023-02-28T11:34:43.089Z,7.88
2023-02-28T11:37:16.735Z,7.90
2023-02-28T11:39:45.216Z,8.20
2023-02-28T11:42:40.472Z,7.53
2023-02-28T11:45:17.171Z,7.00
2023-02-28T11:47:57.233Z,6.50
2023-02-28T11:50:43.646Z,5.97
2023-02-28T11:53:31.782Z,6.05
2023-02-28T11:56:20.451Z,5.75
2023-02-28T11:58:55.450Z,5.93
2023-02-28T12:01:39.750Z,5.88
2023-02-28T12:04:25.236Z,6.25
2023-02-28T12:07:09.639Z,5.93
2023-02-28T12:09:51.145Z,5.75
2023-02-28T12:12:58.625Z,5.90
2023-02-28T12:16:03.381Z,6.72
2023-02-28T12:18:53.220Z,5.63
2023-02-28T12:21:46.245Z,4.95
2023-02-28T12:24:31.431Z,6.07
2023-02-28T12:27:04.011Z,5.45
2023-02-28T12:29:58.214Z,4.60
2023-02-28T12:32:32.768Z,5.28
2023-02-28T12:35:07.653Z,5.57
2023-02-28T12:37:47.379Z,5.47
2023-02-28T12:40:20.309Z,5.15
2023-02-28T12:43:00.113Z,5.82
2023-02-28T12:45:57.044Z,5.40
2023-02-28T12:48:41.740Z,5.00
2023-02-28T12:51:09.835Z,5.75
2023-02-28T12:53:50.985Z,5.50
2023-02-28T12:56:29.337Z,5.68
2023-02-28T12:59:00.692Z,5.30
2023-02-28T13:01:35.351Z,4.90
2023-02-28T13:04:24.373Z,5.55
2023-02-28T13:07:28.566Z,5.10
2023-02-28T13:09:59.097Z,5.50
2023-02-28T13:12:28.073Z,5.35
2023-02-28T13:15:05.609Z,5.07
2023-02-28T13:17:33.689Z,5.32
2023-02-28T13:20:01.538Z,5.90
2023-02-28T13:22:46.749Z,5.72
2023-02-28T13:25:35.575Z,5.80
2023-02-28T13:28:09.693Z,5.30
2023-02-28T13:30:59.845Z,5.22
2023-02-28T13:33:40.134Z,5.50
2023-02-28T13:38:49.067Z,6.32
2023-02-28T13:41:37.301Z,5.85
2023-02-28T13:44:18.873Z,6.03
2023-02-28T13:46:49.614Z,5.72
2023-02-28T13:49:27.142Z,5.65
2023-02-28T13:52:15.361Z,5.72
2023-02-28T13:55:25.148Z,5.78
2023-02-28T13:58:01.256Z,5.55
2023-02-28T14:00:55.946Z,6.10
2023-02-28T14:03:56.685Z,5.55
2023-02-28T14:06:29.342Z,5.30
2023-02-28T14:09:21.614Z,5.47
2023-02-28T14:11:49.022Z,5.20
2023-02-28T14:14:37.493Z,5.47
2023-02-28T14:17:08.597Z,5.07
2023-02-28T14:19:38.451Z,4.78
2023-02-28T14:22:41.243Z,5.88
2023-02-28T14:25:25.872Z,5.07
2023-02-28T14:28:15.285Z,5.85
2023-02-28T14:31:10.853Z,6.45
2023-02-28T14:34:13.986Z,7.28
2023-02-28T14:36:43.595Z,7.10
2023-02-28T14:39:18.001Z,7.32
2023-02-28T14:41:46.218Z,5.90
2023-02-28T14:44:23.818Z,6.93
2023-02-28T14:46:56.309Z,6.53
2023-02-28T14:49:29.750Z,6.38
2023-02-28T14:52:25.572Z,7.63
2023-02-28T14:54:59.288Z,7.63
2023-02-28T14:57:34.029Z,6.63
2023-02-28T15:00:24.362Z,7.53
2023-02-28T15:05:31.314Z,6.82
2023-02-28T15:08:14.338Z,7.35
2023-02-28T15:11:28.152Z,6.70
2023-02-28T15:13:59.230Z,6.65
2023-02-28T15:16:33.403Z,6.95
2023-02-28T15:19:14.297Z,6.00
2023-02-28T15:21:46.702Z,5.55
2023-02-28T15:24:25.799Z,5.32
2023-02-28T15:26:59.223Z,5.75
2023-02-28T15:29:29.288Z,5.85
2023-02-28T15:32:06.332Z,5.47
2023-02-28T15:34:43.299Z,5.88
2023-02-28T15:37:34.358Z,5.35
2023-02-28T15:40:42.176Z,6.55
2023-02-28T15:43:24.246Z,5.63
2023-02-28T15:46:01.404Z,5.70
2023-02-28T15:48:39.063Z,5.55
2023-02-28T15:51:22.036Z,5.63
2023-02-28T15:54:02.306Z,6.30
2023-02-28T15:59:08.887Z,9.05
2023-02-28T16:01:39.531Z,6.63
2023-02-28T16:04:15.246Z,5.40
2023-02-28T16:06:43.441Z,5.40
2023-02-28T16:09:14.723Z,5.05
2023-02-28T16:11:48.323Z,5.45
2023-02-28T16:14:24.690Z,5.03
2023-02-28T16:16:54.921Z,5.80
2023-02-28T16:21:50.056Z,4.75
2023-02-28T16:24:17.207Z,5.60
2023-02-28T16:26:49.442Z,4.88
2023-02-28T16:29:25.383Z,5.03
2023-02-28T16:31:52.536Z,4.90
2023-02-28T16:34:19.730Z,6.22
2023-02-28T16:36:49.735Z,5.68
2023-02-28T16:39:17.057Z,5.80
2023-02-28T16:41:46.560Z,6.03
2023-02-28T16:44:25.402Z,5.78
2023-02-28T16:46:52.496Z,5.90
2023-02-28T16:49:19.702Z,5.82
2023-02-28T16:51:46.863Z,5.65
2023-02-28T16:54:14.041Z,5.03
2023-02-28T16:56:46.053Z,4.95
2023-02-28T16:59:14.770Z,5.20
2023-02-28T17:01:41.914Z,5.55
2023-02-28T17:04:12.003Z,5.53
2023-02-28T17:06:39.310Z,5.65
2023-02-28T17:09:06.630Z,5.63
2023-02-28T17:11:34.023Z,6.18
2023-02-28T17:14:01.226Z,5.70
2023-02-28T17:16:33.830Z,6.65
2023-02-28T17:19:03.749Z,5.88
2023-02-28T17:21:32.255Z,6.10
2023-02-28T17:23:59.971Z,6.05
2023-02-28T17:26:29.000Z,6.10
2023-02-28T17:28:58.208Z,5.63
2023-02-28T17:31:27.109Z,5.63
2023-02-28T17:33:55.546Z,5.90
2023-02-28T17:36:26.917Z,6.72
2023-02-28T17:38:56.375Z,7.93
2023-02-28T17:41:23.833Z,7.25
2023-02-28T17:43:51.785Z,7.18
2023-02-28T17:46:24.340Z,8.30
2023-02-28T17:48:53.345Z,9.48
2023-02-28T17:51:22.544Z,10.80
2023-02-28T17:53:50.317Z,10.80
2023-02-28T17:56:24.384Z,10.95
2023-02-28T17:58:53.581Z,9.85
2023-02-28T18:01:22.159Z,8.90
2023-02-28T18:03:50.054Z,9.02
2023-02-28T18:06:28.730Z,10.80
2023-02-28T18:08:56.254Z,12.65
2023-02-28T18:11:24.555Z,14.05
2023-02-28T18:13:54.419Z,13.25
2023-02-28T18:16:23.103Z,13.18
2023-02-28T18:18:51.026Z,12.82
2023-02-28T18:21:18.257Z,13.98
2023-02-28T18:23:48.616Z,14.13
2023-02-28T18:26:17.586Z,13.43
2023-02-28T18:28:45.625Z,12.90
2023-02-28T18:31:16.334Z,11.23
2023-02-28T18:33:45.428Z,11.90
2023-02-28T18:36:12.456Z,11.85
2023-02-28T18:38:40.202Z,12.38
2023-02-28T18:41:08.530Z,11.57
2023-02-28T18:43:38.660Z,10.60
2023-02-28T18:48:33.826Z,11.73
2023-02-28T18:51:07.012Z,13.35
2023-02-28T18:53:36.407Z,15.10
2023-02-28T18:56:04.747Z,18.95
2023-02-28T18:58:33.729Z,22.65
2023-02-28T19:01:04.937Z,23.02
2023-02-28T19:03:32.180Z,19.70
2023-02-28T19:06:00.656Z,18.80
2023-02-28T19:08:28.288Z,18.42
2023-02-28T19:10:55.657Z,18.17
2023-02-28T19:13:22.695Z,18.63
2023-02-28T19:15:49.990Z,17.15
2023-02-28T19:18:17.131Z,13.95
2023-02-28T19:20:44.134Z,15.80
2023-02-28T19:23:13.203Z,13.80
2023-02-28T19:25:43.349Z,13.35
2023-02-28T19:30:38.144Z,11.88
2023-02-28T19:33:05.344Z,12.82
2023-02-28T19:35:32.531Z,12.38
2023-02-28T19:37:59.984Z,12.00
2023-02-28T19:40:27.232Z,11.93
2023-02-28T19:42:54.374Z,11.57
2023-02-28T19:45:21.540Z,13.35
2023-02-28T19:47:48.682Z,12.90
2023-02-28T19:50:16.467Z,13.68
2023-02-28T19:52:43.696Z,13.57
2023-02-28T19:55:11.409Z,14.40
2023-02-28T19:57:38.532Z,15.25
2023-02-28T20:00:06.260Z,16.88
2023-02-28T20:02:39.543Z,14.98
2023-02-28T20:05:07.882Z,15.55
2023-02-28T20:07:35.939Z,15.63
2023-02-28T20:10:03.148Z,16.38
2023-02-28T20:12:30.247Z,16.40
2023-02-28T20:14:57.527Z,17.60
2023-02-28T20:17:25.110Z,16.40
2023-02-28T20:19:52.149Z,16.90
2023-02-28T20:22:19.338Z,17.73
2023-02-28T20:24:48.883Z,16.85
2023-02-28T20:27:16.211Z,17.67
2023-02-28T20:29:43.363Z,17.00
2023-02-28T20:32:10.644Z,17.20
2023-02-28T20:34:37.800Z,17.13
2023-02-28T20:37:04.974Z,17.25
2023-02-28T20:39:32.087Z,16.23
2023-02-28T20:41:59.194Z,15.57
2023-02-28T20:44:26.506Z,16.35
2023-02-28T20:46:53.634Z,16.52
2023-02-28T20:49:21.062Z,16.60
2023-02-28T20:51:48.261Z,16.63
2023-02-28T20:54:16.507Z,16.63
2023-02-28T20:56:43.694Z,16.42
2023-02-28T20:59:12.569Z,16.95
2023-02-28T21:01:40.941Z,16.27
2023-02-28T21:04:08.413Z,16.25
2023-02-28T21:06:43.370Z,15.35
2023-02-28T21:09:13.629Z,15.25
2023-02-28T21:11:41.508Z,16.02
2023-02-28T21:14:13.098Z,15.82
2023-02-28T21:16:40.655Z,16.42
2023-02-28T21:19:07.858Z,16.33
2023-02-28T21:21:40.217Z,15.32
2023-02-28T21:24:07.762Z,16.50
2023-02-28T21:26:34.820Z,17.00
2023-02-28T21:29:03.135Z,15.93
2023-02-28T21:31:34.300Z,16.40
2023-02-28T21:34:03.269Z,16.77
2023-02-28T21:36:33.251Z,17.85
2023-02-28T21:39:04.184Z,17.55
2023-02-28T21:41:31.454Z,17.23
2023-02-28T21:43:58.675Z,17.25
2023-02-28T21:46:29.384Z,16.92
2023-02-28T21:48:57.571Z,18.65
2023-02-28T21:51:28.234Z,18.38
2023-02-28T21:53:57.214Z,19.88
2023-02-28T21:56:26.637Z,20.92
2023-02-28T21:59:00.800Z,20.13
2023-02-28T22:01:37.136Z,20.63
2023-02-28T22:04:07.423Z,19.02
2023-02-28T22:09:06.270Z,19.92
2023-02-28T22:11:34.746Z,20.67
2023-02-28T22:14:02.467Z,20.45
2023-02-28T22:16:37.928Z,22.27
2023-02-28T22:19:15.839Z,20.92
2023-02-28T22:21:43.180Z,21.55
2023-02-28T22:24:11.331Z,21.98
2023-02-28T22:26:38.562Z,21.75
2023-02-28T22:29:06.373Z,22.70
2023-02-28T22:31:36.150Z,23.90
2023-02-28T22:34:06.993Z,22.33
2023-02-28T22:36:34.885Z,21.65
2023-02-28T22:39:02.364Z,20.92
2023-02-28T22:41:30.159Z,20.85
2023-02-28T22:44:00.384Z,19.27
2023-02-28T22:46:29.696Z,20.95
2023-02-28T22:49:01.902Z,21.88
2023-02-28T22:51:30.844Z,21.40
2023-02-28T22:53:58.801Z,20.77
2023-02-28T22:56:28.161Z,21.23
2023-02-28T22:58:57.812Z,21.98
2023-02-28T23:01:27.682Z,21.42
2023-02-28T23:03:55.210Z,20.30
2023-02-28T23:06:31.071Z,20.80
2023-02-28T23:09:01.965Z,22.05
2023-02-28T23:11:32.218Z,23.33
2023-02-28T23:13:59.902Z,23.00
2023-02-28T23:16:38.694Z,22.20
2023-02-28T23:19:11.006Z,20.77
2023-02-28T23:21:39.450Z,22.13
2023-02-28T23:24:11.545Z,22.92
2023-02-28T23:26:44.961Z,22.10
2023-02-28T23:29:13.333Z,21.27
2023-02-28T23:31:40.984Z,22.08
2023-02-28T23:34:08.414Z,20.42
2023-02-28T23:36:35.620Z,21.58
2023-02-28T23:39:02.773Z,21.70
2023-02-28T23:41:29.971Z,21.73
2023-02-28T23:43:57.010Z,20.83
2023-02-28T23:46:24.377Z,22.10
2023-02-28T23:48:51.622Z,21.45
2023-02-28T23:51:21.767Z,22.00
2023-02-28T23:56:21.468Z,23.48
2023-02-28T23:58:49.742Z,22.85
